createdAt,value
2022-10-11T00:07:26.460Z,3.67
2022-10-11T00:22:27.918Z,6.50
2022-10-11T00:37:29.371Z,4.37
2022-10-11T00:52:30.833Z,4.33
2022-10-11T01:07:32.277Z,4.17
2022-10-11T01:22:33.739Z,3.43
2022-10-11T01:37:35.193Z,2.47
2022-10-11T01:52:36.659Z,3.20
2022-10-11T02:07:38.170Z,2.77
2022-10-11T02:22:39.622Z,3.50
2022-10-11T02:37:41.090Z,2.80
2022-10-11T02:52:42.567Z,2.10
2022-10-11T03:07:44.039Z,2.57
2022-10-11T03:22:45.492Z,2.30
2022-10-11T03:37:46.964Z,1.93
2022-10-11T03:52:48.427Z,1.97
2022-10-11T04:07:49.895Z,2.17
2022-10-11T04:22:51.359Z,2.70
2022-10-11T04:37:52.843Z,2.90
2022-10-11T04:52:54.291Z,2.20
2022-10-11T05:07:55.746Z,1.80
2022-10-11T05:22:57.207Z,2.70
2022-10-11T05:37:58.667Z,2.30
2022-10-11T05:53:00.121Z,2.80
2022-10-11T06:08:01.575Z,2.00
2022-10-11T06:23:03.036Z,4.83
2022-10-11T06:38:04.526Z,3.53
2022-10-11T06:53:05.985Z,2.00
2022-10-11T07:08:07.461Z,2.37
2022-10-11T07:23:08.917Z,2.50
2022-10-11T07:38:10.359Z,3.50
2022-10-11T07:53:11.818Z,2.97
2022-10-11T08:08:13.284Z,3.27
2022-10-11T08:23:14.741Z,3.23
2022-10-11T08:38:16.221Z,4.90
2022-10-11T08:53:17.680Z,6.87
2022-10-11T09:08:19.183Z,5.60
2022-10-11T09:23:20.643Z,4.80
2022-10-11T09:38:22.102Z,2.80
2022-10-11T09:53:23.544Z,5.90
2022-10-11T10:08:24.997Z,2.73
2022-10-11T10:23:26.463Z,3.17
2022-10-11T10:38:28.007Z,4.87
2022-10-11T10:53:29.474Z,3.23
2022-10-11T11:08:30.921Z,4.53
2022-10-11T11:23:32.423Z,4.50
2022-10-11T11:38:33.895Z,5.90
2022-10-11T11:53:35.376Z,4.00
2022-10-11T12:08:36.837Z,3.53
2022-10-11T12:23:38.286Z,4.30
2022-10-11T12:38:39.782Z,2.60
2022-10-11T12:53:41.262Z,3.43
2022-10-11T13:08:42.786Z,5.30
2022-10-11T13:23:44.253Z,3.57
2022-10-11T13:38:45.712Z,4.57
2022-10-11T13:53:47.186Z,2.37
2022-10-11T14:08:48.662Z,3.83
2022-10-11T14:23:50.123Z,2.27
2022-10-11T14:38:51.583Z,3.13
2022-10-11T14:53:53.039Z,3.10
2022-10-11T15:08:54.489Z,2.37
2022-10-11T15:23:55.966Z,3.50
2022-10-11T15:38:57.425Z,4.00
2022-10-11T15:53:58.883Z,4.73
2022-10-11T16:09:00.354Z,3.43
2022-10-11T16:24:01.819Z,5.77
2022-10-11T16:39:03.270Z,2.97
2022-10-11T16:54:04.733Z,3.53
2022-10-11T17:09:06.198Z,4.50
2022-10-11T17:24:07.661Z,3.40
2022-10-11T17:39:09.126Z,6.63
2022-10-11T17:54:10.562Z,8.07
2022-10-11T18:09:12.028Z,7.57
2022-10-11T18:24:13.479Z,9.43
2022-10-11T18:39:14.937Z,8.83
2022-10-11T18:54:20.070Z,5.30
2022-10-11T19:09:22.675Z,7.27
2022-10-11T19:24:24.133Z,6.57
2022-10-11T19:39:25.611Z,4.87
2022-10-11T19:54:28.189Z,4.90
2022-10-11T20:09:30.855Z,4.33
2022-10-11T20:24:33.357Z,7.33
2022-10-11T20:39:35.401Z,4.20
2022-10-11T20:54:36.850Z,4.80
2022-10-11T21:09:38.294Z,4.30
2022-10-11T21:24:39.740Z,8.90
2022-10-11T21:39:41.190Z,6.07
2022-10-11T21:54:42.645Z,9.40
2022-10-11T22:09:44.081Z,11.90
2022-10-11T22:24:45.593Z,11.10
2022-10-11T22:39:47.029Z,5.43
2022-10-11T22:54:48.496Z,5.47
2022-10-11T23:09:49.984Z,7.67
2022-10-11T23:24:51.422Z,6.27
2022-10-11T23:39:52.871Z,5.10
2022-10-11T23:54:54.327Z,6.63
